Time;durP1;ratioP1;P1;durP2;ratioP2;P2;SDS_P1;SDS_P2;PMS_P1;PMS_P2;Temp;Humidity;BMP_temperature;BMP_pressure;BME280_temperature;BME280_humidity;BME280_pressure;Samples;Min_cycle;Max_cycle;Signal;HPM_P1;HPM_P2
2020/12/19 00:00:15;;;;;;;29.77;14.75;;;4.80;99.90;;;;;;5105255;28;20051;-82
2020/12/19 00:02:41;;;;;;;33.50;16.65;;;4.80;99.90;;;;;;5079694;28;20023;-82
2020/12/19 00:05:07;;;;;;;31.20;15.02;;;4.70;99.90;;;;;;5084227;28;20450;-82
2020/12/19 00:07:33;;;;;;;30.45;15.73;;;4.70;99.90;;;;;;5090953;28;20020;-82
2020/12/19 00:09:59;;;;;;;32.33;15.18;;;4.70;99.90;;;;;;5104842;28;20554;-82
2020/12/19 00:12:25;;;;;;;34.38;15.98;;;4.60;99.90;;;;;;5088305;28;20037;-82
2020/12/19 00:14:51;;;;;;;29.92;15.73;;;4.70;99.90;;;;;;5088480;28;20036;-86
2020/12/19 00:17:16;;;;;;;42.20;18.73;;;4.60;99.90;;;;;;5077794;28;20027;-86
2020/12/19 00:19:42;;;;;;;39.83;14.63;;;4.60;99.90;;;;;;5109297;28;20445;-86
2020/12/19 00:22:08;;;;;;;40.15;17.38;;;4.60;99.90;;;;;;5091975;28;20032;-87
2020/12/19 00:24:33;;;;;;;27.48;13.88;;;4.70;99.90;;;;;;5093522;28;20019;-86
2020/12/19 00:26:59;;;;;;;30.50;15.18;;;4.60;99.90;;;;;;5093662;28;20643;-86
2020/12/19 00:29:25;;;;;;;29.67;14.82;;;4.60;99.90;;;;;;5093264;28;20479;-87
2020/12/19 00:31:50;;;;;;;26.67;14.18;;;4.60;99.90;;;;;;5091562;28;20035;-86
2020/12/19 00:34:18;;;;;;;36.25;17.13;;;4.60;99.90;;;;;;5094385;28;20071;-86
2020/12/19 00:36:44;;;;;;;35.83;15.55;;;4.70;99.90;;;;;;5095016;28;20030;-86
2020/12/19 00:39:10;;;;;;;34.67;17.08;;;4.70;99.90;;;;;;5090578;28;20147;-86
2020/12/19 00:41:35;;;;;;;35.55;16.77;;;4.70;99.90;;;;;;5110894;28;20023;-87
2020/12/19 00:44:01;;;;;;;34.03;15.93;;;4.70;99.90;;;;;;5086236;28;20035;-86
2020/12/19 00:46:27;;;;;;;30.88;17.33;;;4.60;99.90;;;;;;5092723;28;20032;-86
2020/12/19 00:48:53;;;;;;;34.20;16.90;;;4.60;99.90;;;;;;5085775;28;20114;-86
2020/12/19 00:51:20;;;;;;;36.63;16.60;;;4.60;99.90;;;;;;5094834;28;20030;-86
2020/12/19 00:53:47;;;;;;;33.88;18.30;;;4.60;99.90;;;;;;5094822;28;20020;-86
2020/12/19 00:56:24;;;;;;;35.67;17.65;;;4.60;99.90;;;;;;5092272;28;20030;-86
2020/12/19 00:58:51;;;;;;;36.55;19.00;;;4.60;99.90;;;;;;5111729;28;20030;-87
2020/12/19 01:01:20;;;;;;;37.42;18.33;;;4.60;99.90;;;;;;5104090;28;20027;-86
2020/12/19 01:03:46;;;;;;;35.15;17.98;;;4.50;99.90;;;;;;5095100;28;20037;-86
2020/12/19 01:06:20;;;;;;;41.20;19.48;;;4.50;99.90;;;;;;5089478;28;20055;-85
2020/12/19 01:08:48;;;;;;;37.72;19.80;;;4.50;99.90;;;;;;5092787;28;20047;-85
2020/12/19 01:11:25;;;;;;;35.03;18.42;;;4.50;99.90;;;;;;5087226;28;20060;-86
2020/12/19 01:13:51;;;;;;;39.28;18.25;;;4.50;99.90;;;;;;5085292;28;20061;-86
2020/12/19 01:16:20;;;;;;;39.15;20.88;;;4.50;99.90;;;;;;5091854;28;20024;-87
2020/12/19 01:18:47;;;;;;;39.97;20.52;;;4.50;99.90;;;;;;5093570;28;20023;-86
2020/12/19 01:21:20;;;;;;;42.15;20.25;;;4.50;99.90;;;;;;5106650;28;20020;-86
2020/12/19 01:23:46;;;;;;;41.13;20.83;;;4.50;99.90;;;;;;5089079;28;20024;-86
2020/12/19 01:26:13;;;;;;;40.20;19.45;;;4.50;99.90;;;;;;5091308;28;20026;-85
2020/12/19 01:28:39;;;;;;;36.80;19.92;;;4.50;99.90;;;;;;5091271;28;20019;-85
2020/12/19 01:31:07;;;;;;;39.75;21.80;;;4.50;99.90;;;;;;5089872;28;20503;-86
2020/12/19 01:33:33;;;;;;;44.13;20.23;;;4.40;99.90;;;;;;5111049;28;20122;-86
2020/12/19 01:35:59;;;;;;;54.33;21.50;;;4.40;99.90;;;;;;5094094;28;20054;-86
2020/12/19 01:38:25;;;;;;;42.05;21.13;;;4.50;99.90;;;;;;5093206;28;20480;-86
2020/12/19 01:40:52;;;;;;;43.25;21.92;;;4.40;99.90;;;;;;5102137;28;20638;-87
2020/12/19 01:43:18;;;;;;;42.67;20.65;;;4.40;99.90;;;;;;5092795;28;20031;-86
2020/12/19 01:45:44;;;;;;;48.35;23.17;;;4.40;99.90;;;;;;5091232;28;20027;-86
2020/12/19 01:48:36;;;;;;;45.17;22.50;;;4.40;99.90;;;;;;5094412;28;20024;-85
2020/12/19 01:51:02;;;;;;;48.80;23.65;;;4.40;99.90;;;;;;5093739;28;20047;-85
2020/12/19 01:53:29;;;;;;;40.83;21.17;;;4.40;99.90;;;;;;5096059;28;20482;-86
2020/12/19 01:55:56;;;;;;;44.58;24.02;;;4.30;99.90;;;;;;5091549;28;20052;-85
2020/12/19 01:58:22;;;;;;;51.25;24.58;;;4.30;99.90;;;;;;5084646;28;20177;-85
2020/12/19 02:00:47;;;;;;;53.42;24.85;;;4.30;99.90;;;;;;5088848;28;20442;-86
2020/12/19 02:03:13;;;;;;;49.15;23.83;;;4.30;99.90;;;;;;5093342;28;20038;-86
2020/12/19 02:05:41;;;;;;;49.35;25.15;;;4.30;99.90;;;;;;5093186;28;20047;-86
2020/12/19 02:08:08;;;;;;;59.35;24.90;;;4.30;99.90;;;;;;5093661;28;20092;-86
2020/12/19 02:10:35;;;;;;;52.47;26.13;;;4.30;99.90;;;;;;5086801;28;20080;-86
2020/12/19 02:13:05;;;;;;;53.90;24.83;;;4.30;99.90;;;;;;5083954;28;20019;-86
2020/12/19 02:15:44;;;;;;;51.90;25.98;;;4.30;99.90;;;;;;5090114;28;20036;-86
2020/12/19 02:18:10;;;;;;;58.67;26.02;;;4.30;99.90;;;;;;5093041;28;20392;-86
2020/12/19 02:20:36;;;;;;;54.80;26.73;;;4.30;99.90;;;;;;5092502;28;20027;-86
2020/12/19 02:23:04;;;;;;;54.85;26.48;;;4.20;99.90;;;;;;5093165;28;20023;-86
2020/12/19 02:25:36;;;;;;;59.60;27.15;;;4.20;99.90;;;;;;5089893;28;20027;-85
2020/12/19 02:28:04;;;;;;;58.10;27.33;;;4.20;99.90;;;;;;5089346;28;20038;-85
2020/12/19 02:30:29;;;;;;;58.10;28.38;;;4.20;99.90;;;;;;5103680;28;20046;-85
2020/12/19 02:32:56;;;;;;;59.08;27.58;;;4.20;99.90;;;;;;5110845;28;20103;-85
2020/12/19 02:35:21;;;;;;;64.43;29.33;;;4.20;99.90;;;;;;5092803;28;20041;-85
2020/12/19 02:37:47;;;;;;;64.63;29.45;;;4.20;99.90;;;;;;5092292;28;20630;-86
2020/12/19 02:40:13;;;;;;;58.63;28.27;;;4.20;99.90;;;;;;5087819;28;20066;-87
2020/12/19 02:42:38;;;;;;;60.42;28.30;;;4.20;99.90;;;;;;5091824;28;20054;-86
2020/12/19 02:45:04;;;;;;;65.88;29.10;;;4.20;99.90;;;;;;5093881;28;20039;-86
2020/12/19 02:47:29;;;;;;;70.38;33.17;;;4.20;99.90;;;;;;5116815;28;20032;-86
2020/12/19 02:49:55;;;;;;;60.88;30.65;;;4.20;99.90;;;;;;5103772;28;20043;-84
2020/12/19 02:52:21;;;;;;;71.15;32.15;;;4.20;99.90;;;;;;5104754;28;20024;-84
2020/12/19 02:54:46;;;;;;;67.03;32.78;;;4.30;99.90;;;;;;5098915;28;20020;-85
2020/12/19 02:57:12;;;;;;;69.43;31.58;;;4.30;99.90;;;;;;5089537;28;20119;-85
2020/12/19 02:59:37;;;;;;;68.90;33.83;;;4.30;99.90;;;;;;5105680;28;20414;-86
2020/12/19 03:02:03;;;;;;;66.50;30.60;;;4.30;99.90;;;;;;5088992;28;20411;-85
2020/12/19 03:04:28;;;;;;;74.18;33.65;;;4.30;99.90;;;;;;5092012;28;20038;-86
2020/12/19 03:06:54;;;;;;;68.10;33.30;;;4.30;99.90;;;;;;5091919;28;20063;-86
2020/12/19 03:09:20;;;;;;;71.20;33.13;;;4.20;99.90;;;;;;5089544;28;20015;-86
2020/12/19 03:11:46;;;;;;;64.93;32.67;;;4.20;99.90;;;;;;5090318;28;21585;-86
2020/12/19 03:14:11;;;;;;;72.15;32.42;;;4.20;99.90;;;;;;5087042;28;20031;-86
2020/12/19 03:16:37;;;;;;;67.43;31.00;;;4.20;99.90;;;;;;5084909;28;20019;-86
2020/12/19 03:19:03;;;;;;;64.15;34.03;;;4.30;99.90;;;;;;5090879;28;20031;-85
2020/12/19 03:21:28;;;;;;;77.80;37.70;;;4.20;99.90;;;;;;5110212;28;20024;-86
2020/12/19 03:23:54;;;;;;;74.07;35.45;;;4.30;99.90;;;;;;5080234;28;20116;-86
2020/12/19 03:26:19;;;;;;;77.65;35.47;;;4.30;99.90;;;;;;5085158;28;20023;-85
2020/12/19 03:28:45;;;;;;;79.75;36.38;;;4.30;99.90;;;;;;5089973;28;20027;-84
2020/12/19 03:31:11;;;;;;;65.53;33.42;;;4.30;99.90;;;;;;5083613;28;20142;-86
2020/12/19 03:33:36;;;;;;;75.38;35.28;;;4.30;99.90;;;;;;5110026;28;20032;-86
2020/12/19 03:36:02;;;;;;;79.25;35.83;;;4.30;99.90;;;;;;5109781;28;20032;-86
2020/12/19 03:38:27;;;;;;;79.95;36.72;;;4.30;99.90;;;;;;5109677;28;20039;-86
2020/12/19 03:40:53;;;;;;;75.97;36.00;;;4.30;99.90;;;;;;5088166;28;20039;-85
2020/12/19 03:43:19;;;;;;;74.13;36.45;;;4.30;99.90;;;;;;5089326;28;20034;-85
2020/12/19 03:45:44;;;;;;;69.43;33.55;;;4.30;99.90;;;;;;5107191;28;20039;-87
2020/12/19 03:48:10;;;;;;;71.20;36.47;;;4.30;99.90;;;;;;5091648;28;20553;-87
2020/12/19 03:50:35;;;;;;;84.03;37.35;;;4.20;99.90;;;;;;5091966;28;20046;-86
2020/12/19 03:53:01;;;;;;;70.20;35.13;;;4.20;99.90;;;;;;5091893;28;20027;-86
2020/12/19 03:55:30;;;;;;;81.63;35.65;;;4.20;99.90;;;;;;5109238;28;20085;-86
2020/12/19 03:57:56;;;;;;;75.03;34.08;;;4.20;99.90;;;;;;5091930;28;20032;-86
2020/12/19 04:00:22;;;;;;;82.43;38.25;;;4.20;99.90;;;;;;5110966;28;20028;-86
2020/12/19 04:02:48;;;;;;;75.35;36.28;;;4.30;99.90;;;;;;5090625;28;20028;-86
2020/12/19 04:05:13;;;;;;;75.57;38.00;;;4.30;99.90;;;;;;5107441;28;20020;-86
2020/12/19 04:07:39;;;;;;;74.70;36.53;;;4.30;99.90;;;;;;5095772;28;20126;-86
2020/12/19 04:10:07;;;;;;;78.80;37.65;;;4.20;99.90;;;;;;5093231;28;20040;-86
2020/12/19 04:12:33;;;;;;;77.75;35.30;;;4.20;99.90;;;;;;5093024;28;20545;-86
2020/12/19 04:14:59;;;;;;;82.95;35.90;;;4.20;99.90;;;;;;5110784;28;20495;-86
2020/12/19 04:17:25;;;;;;;77.68;37.15;;;4.10;99.90;;;;;;5093033;28;20024;-86
2020/12/19 04:19:50;;;;;;;79.10;35.85;;;4.10;99.90;;;;;;5094919;28;20044;-86
2020/12/19 04:22:16;;;;;;;81.75;36.67;;;4.10;99.90;;;;;;5095302;28;20028;-87
2020/12/19 04:24:42;;;;;;;79.85;37.88;;;4.10;99.90;;;;;;5090861;28;20030;-86
2020/12/19 04:27:08;;;;;;;80.47;37.35;;;4.00;99.90;;;;;;5088508;28;20030;-86
2020/12/19 04:29:33;;;;;;;78.25;38.58;;;4.00;99.90;;;;;;5093305;28;20114;-86
2020/12/19 04:31:59;;;;;;;80.15;37.42;;;4.00;99.90;;;;;;5091365;28;20035;-86
2020/12/19 04:34:26;;;;;;;92.18;40.25;;;3.90;99.90;;;;;;5090817;28;20456;-86
2020/12/19 04:36:52;;;;;;;83.35;37.67;;;3.90;99.90;;;;;;5082892;28;20055;-86
2020/12/19 04:39:18;;;;;;;87.05;39.80;;;4.00;99.90;;;;;;5095521;28;20039;-85
2020/12/19 04:41:45;;;;;;;87.45;40.03;;;4.00;99.90;;;;;;5094012;28;20077;-85
2020/12/19 04:44:11;;;;;;;91.93;40.42;;;4.00;99.90;;;;;;5088772;28;20119;-85
2020/12/19 04:46:41;;;;;;;82.32;37.67;;;4.00;99.90;;;;;;5092779;28;20047;-85
2020/12/19 04:49:07;;;;;;;85.32;40.10;;;4.00;99.90;;;;;;5097522;28;20032;-87
2020/12/19 04:51:35;;;;;;;81.85;38.65;;;4.00;99.90;;;;;;5113673;28;20377;-86
2020/12/19 04:54:01;;;;;;;84.00;38.72;;;4.10;99.90;;;;;;5109958;28;20020;-86
2020/12/19 04:56:28;;;;;;;84.85;38.42;;;4.10;99.90;;;;;;5086899;28;20028;-85
2020/12/19 04:58:55;;;;;;;81.65;39.78;;;4.00;99.90;;;;;;5089005;28;20060;-87
2020/12/19 05:01:21;;;;;;;81.88;38.33;;;4.00;99.90;;;;;;5108029;28;20031;-86
2020/12/19 05:03:48;;;;;;;87.63;39.05;;;4.00;99.90;;;;;;5086761;28;20031;-84
2020/12/19 05:06:23;;;;;;;96.35;39.70;;;4.00;99.90;;;;;;5090052;28;20507;-87
2020/12/19 05:08:49;;;;;;;92.05;38.50;;;4.00;99.90;;;;;;5090265;28;20047;-85
2020/12/19 05:11:15;;;;;;;76.20;37.97;;;4.00;99.90;;;;;;5090158;28;20495;-84
2020/12/19 05:13:42;;;;;;;84.32;38.20;;;4.00;99.90;;;;;;5091033;28;20111;-86
2020/12/19 05:16:13;;;;;;;94.38;40.53;;;4.00;99.90;;;;;;5104664;28;20027;-85
2020/12/19 05:18:39;;;;;;;94.72;40.63;;;4.10;99.90;;;;;;5094985;28;20020;-86
2020/12/19 05:21:06;;;;;;;87.80;37.90;;;4.00;99.90;;;;;;5092703;28;20104;-86
2020/12/19 05:23:33;;;;;;;87.30;38.53;;;4.00;99.90;;;;;;5089482;28;20020;-85
2020/12/19 05:25:59;;;;;;;88.43;39.53;;;4.10;99.90;;;;;;5093441;28;20019;-85
2020/12/19 05:28:25;;;;;;;85.93;37.90;;;4.10;99.90;;;;;;5090333;28;20503;-86
2020/12/19 05:30:51;;;;;;;85.65;39.38;;;4.10;99.90;;;;;;5090244;28;20047;-85
2020/12/19 05:33:16;;;;;;;91.15;38.70;;;4.00;99.90;;;;;;5093791;28;20483;-85
2020/12/19 05:35:44;;;;;;;92.47;39.10;;;4.00;99.90;;;;;;5086396;28;20027;-85
2020/12/19 05:38:10;;;;;;;87.50;39.83;;;4.00;99.90;;;;;;5088913;28;20483;-85
2020/12/19 05:40:35;;;;;;;85.75;38.55;;;4.10;99.90;;;;;;5104939;28;20058;-83
2020/12/19 05:43:01;;;;;;;90.70;37.92;;;4.00;99.90;;;;;;5083518;28;20038;-83
2020/12/19 05:45:29;;;;;;;87.95;38.75;;;4.10;99.90;;;;;;5090279;28;20545;-85
2020/12/19 05:47:55;;;;;;;88.93;39.85;;;4.00;99.90;;;;;;5092383;28;20375;-86
2020/12/19 05:50:21;;;;;;;88.53;39.05;;;4.00;99.90;;;;;;5093740;28;20472;-86
2020/12/19 05:52:48;;;;;;;90.45;39.08;;;4.10;99.90;;;;;;5093955;28;20555;-85
2020/12/19 05:55:16;;;;;;;85.68;39.78;;;4.00;99.90;;;;;;5086651;28;20038;-85
2020/12/19 05:57:42;;;;;;;86.50;38.28;;;4.00;99.90;;;;;;5083703;27;20023;-85
2020/12/19 06:00:14;;;;;;;93.40;40.65;;;4.00;99.90;;;;;;5092494;28;20043;-85
2020/12/19 06:02:41;;;;;;;95.03;41.20;;;4.00;99.90;;;;;;5091389;28;20030;-85
2020/12/19 06:05:12;;;;;;;89.68;41.90;;;4.00;99.90;;;;;;5094548;28;20027;-86
2020/12/19 06:07:43;;;;;;;;;;;4.00;99.90;;;;;;5088118;28;20023;-87
2020/12/19 06:10:11;;;;;;;91.57;40.75;;;4.00;99.90;;;;;;5091654;28;19916;-86
2020/12/19 06:12:49;;;;;;;95.45;40.05;;;4.00;99.90;;;;;;5091147;28;20475;-85
2020/12/19 06:15:33;;;;;;;91.43;41.30;;;4.00;99.90;;;;;;5101631;28;20027;-85
2020/12/19 06:18:37;;;;;;;92.63;41.17;;;4.00;99.90;;;;;;5090439;28;20028;-85
2020/12/19 06:21:07;;;;;;;89.80;39.00;;;4.00;99.90;;;;;;5073292;28;20477;-87
2020/12/19 06:23:35;;;;;;;97.03;41.13;;;4.10;99.90;;;;;;5092197;28;20020;-87
2020/12/19 06:26:01;;;;;;;85.72;38.55;;;4.10;99.90;;;;;;5088850;28;20292;-85
2020/12/19 06:28:39;;;;;;;84.90;39.13;;;4.10;99.90;;;;;;5090181;28;20080;-87
2020/12/19 06:31:07;;;;;;;81.57;37.85;;;4.00;99.90;;;;;;5091882;28;20055;-86
2020/12/19 06:33:34;;;;;;;94.10;40.90;;;4.00;99.90;;;;;;5092921;28;20027;-86
2020/12/19 06:36:03;;;;;;;94.78;39.45;;;4.00;99.90;;;;;;5085428;28;20045;-87
2020/12/19 06:39:08;;;;;;;82.85;39.53;;;4.00;99.90;;;;;;5093825;28;20039;-86
2020/12/19 06:41:42;;;;;;;90.82;38.88;;;4.00;99.90;;;;;;5022177;28;20526;-85
2020/12/19 06:44:14;;;;;;;90.80;39.17;;;4.00;99.90;;;;;;4999817;28;20036;-85
2020/12/19 06:46:40;;;;;;;89.95;39.67;;;4.00;99.90;;;;;;4992880;28;20029;-85
2020/12/19 06:49:24;;;;;;;103.78;39.95;;;4.00;99.90;;;;;;4990091;28;20080;-85
2020/12/19 06:52:10;;;;;;;87.95;39.65;;;4.00;99.90;;;;;;5020329;28;20041;-85
2020/12/19 06:54:49;;;;;;;94.63;38.85;;;4.00;99.90;;;;;;4990950;28;20022;-86
2020/12/19 06:57:27;;;;;;;85.35;37.88;;;4.10;99.90;;;;;;4992804;28;20029;-86
2020/12/19 07:00:16;;;;;;;91.10;39.58;;;4.00;99.90;;;;;;5027746;28;20021;-85
2020/12/19 07:02:56;;;;;;;95.30;40.00;;;4.00;99.90;;;;;;5007676;28;20081;-86
2020/12/19 07:05:26;;;;;;;95.82;41.40;;;4.00;99.90;;;;;;4993057;28;20092;-84
2020/12/19 07:07:53;;;;;;;83.63;40.13;;;4.00;99.90;;;;;;4992976;28;20026;-84
2020/12/19 07:10:39;;;;;;;93.93;41.78;;;4.00;99.90;;;;;;5000253;28;20056;-85
2020/12/19 07:13:04;;;;;;;86.65;39.78;;;4.00;99.90;;;;;;5016716;28;20038;-86
2020/12/19 07:15:50;;;;;;;106.30;43.00;;;4.00;99.90;;;;;;4994114;28;20105;-84
2020/12/19 07:18:32;;;;;;;92.47;40.25;;;4.10;99.90;;;;;;5052364;28;20043;-85
2020/12/19 07:21:06;;;;;;;95.93;40.47;;;4.10;99.90;;;;;;5092072;28;20031;-84
2020/12/19 07:23:36;;;;;;;95.10;41.58;;;4.10;99.90;;;;;;5095986;28;20031;-86
2020/12/19 07:26:08;;;;;;;100.22;43.30;;;4.10;99.90;;;;;;5094522;28;20026;-85
2020/12/19 07:28:33;;;;;;;99.30;40.80;;;4.10;99.90;;;;;;5088296;28;20047;-85
2020/12/19 07:31:00;;;;;;;92.20;41.22;;;4.20;99.90;;;;;;5114174;28;20035;-87
2020/12/19 07:33:26;;;;;;;93.72;43.50;;;4.10;99.90;;;;;;5119254;28;20016;-86
2020/12/19 07:35:54;;;;;;;100.25;41.83;;;4.20;99.90;;;;;;5098208;28;20115;-86
2020/12/19 07:38:20;;;;;;;97.97;40.65;;;4.10;99.90;;;;;;5093530;28;20170;-85
2020/12/19 07:40:53;;;;;;;97.85;43.42;;;4.10;99.90;;;;;;5089466;28;20029;-86
2020/12/19 07:43:18;;;;;;;95.00;40.63;;;4.20;99.90;;;;;;5108071;28;20011;-86
2020/12/19 07:45:44;;;;;;;95.32;41.55;;;4.20;99.90;;;;;;5106496;28;20553;-86
2020/12/19 07:48:10;;;;;;;87.38;41.67;;;4.20;99.90;;;;;;5084524;28;20030;-86
2020/12/19 07:50:36;;;;;;;93.10;40.90;;;4.20;99.90;;;;;;5091246;28;20044;-86
2020/12/19 07:53:04;;;;;;;85.63;39.72;;;4.20;99.90;;;;;;5092480;28;20476;-86
2020/12/19 07:55:30;;;;;;;109.63;44.17;;;4.20;99.90;;;;;;5085834;28;20366;-86
2020/12/19 07:57:56;;;;;;;91.90;41.85;;;4.20;99.90;;;;;;5108586;28;20039;-86
2020/12/19 08:00:22;;;;;;;89.15;40.08;;;4.20;99.90;;;;;;5085957;28;20038;-85
2020/12/19 08:02:48;;;;;;;95.03;43.20;;;4.20;99.90;;;;;;5092252;28;20030;-86
2020/12/19 08:05:14;;;;;;;88.95;39.15;;;4.20;99.90;;;;;;5083616;28;20476;-85
2020/12/19 08:07:40;;;;;;;86.00;40.67;;;4.20;99.90;;;;;;5110970;28;20097;-86
2020/12/19 08:10:08;;;;;;;83.32;39.28;;;4.20;99.90;;;;;;5097309;28;20039;-85
2020/12/19 08:12:34;;;;;;;94.82;41.80;;;4.20;99.90;;;;;;5091395;28;20519;-85
2020/12/19 08:15:03;;;;;;;93.85;40.42;;;4.30;99.90;;;;;;5108849;28;20030;-85
2020/12/19 08:17:29;;;;;;;92.80;40.20;;;4.30;99.90;;;;;;5091750;28;20034;-86
2020/12/19 08:19:59;;;;;;;90.63;40.85;;;4.30;99.90;;;;;;5097918;28;20028;-88
2020/12/19 08:22:25;;;;;;;91.22;39.40;;;4.30;99.90;;;;;;5115504;28;20107;-86
2020/12/19 08:24:51;;;;;;;99.60;41.50;;;4.30;99.90;;;;;;5114510;28;20028;-87
2020/12/19 08:27:29;;;;;;;92.80;41.00;;;4.30;99.90;;;;;;5127004;28;20049;-88
2020/12/19 08:30:08;;;;;;;91.75;37.88;;;4.30;99.90;;;;;;5099091;28;20035;-85
2020/12/19 08:32:35;;;;;;;86.10;40.35;;;4.40;99.90;;;;;;5090792;28;20028;-86
2020/12/19 08:35:01;;;;;;;90.72;39.75;;;4.40;99.90;;;;;;5092177;28;20045;-87
2020/12/19 08:37:27;;;;;;;88.07;40.92;;;4.40;99.90;;;;;;5091897;28;20050;-86
2020/12/19 08:40:15;;;;;;;92.47;38.75;;;4.40;99.90;;;;;;5090369;28;20047;-86
2020/12/19 08:42:41;;;;;;;81.55;37.92;;;4.40;99.90;;;;;;5086105;28;20020;-86
2020/12/19 08:45:29;;;;;;;96.25;38.33;;;4.40;99.90;;;;;;5084027;28;20032;-84
2020/12/19 08:47:58;;;;;;;93.78;38.88;;;4.40;99.90;;;;;;5091032;28;20089;-83
2020/12/19 08:50:29;;;;;;;82.10;37.38;;;4.50;99.90;;;;;;5102224;28;20039;-86
2020/12/19 08:53:02;;;;;;;;;;;4.50;99.90;;;;;;5105674;28;20039;-85
2020/12/19 08:55:27;;;;;;;83.00;36.67;;;4.50;99.90;;;;;;5109084;28;19907;-86
2020/12/19 08:57:53;;;;;;;85.10;37.00;;;4.50;99.90;;;;;;5090147;28;20085;-87
2020/12/19 09:00:19;;;;;;;85.40;36.78;;;4.60;99.90;;;;;;5110699;28;20110;-86
2020/12/19 09:02:45;;;;;;;89.30;38.10;;;4.60;99.90;;;;;;5093325;28;20027;-86
2020/12/19 09:05:11;;;;;;;85.50;38.67;;;4.70;99.90;;;;;;5112235;28;20407;-85
2020/12/19 09:07:37;;;;;;;83.80;39.05;;;4.70;99.90;;;;;;5094308;28;20027;-86
2020/12/19 09:10:23;;;;;;;82.80;39.38;;;4.70;99.90;;;;;;5086607;28;20028;-86
2020/12/19 09:13:06;;;;;;;74.18;36.25;;;4.70;99.90;;;;;;5091924;28;20490;-86
2020/12/19 09:15:31;;;;;;;75.93;37.17;;;4.70;99.90;;;;;;5092178;28;20360;-86
2020/12/19 09:17:57;;;;;;;82.53;37.38;;;4.70;99.90;;;;;;5114459;28;20110;-86
2020/12/19 09:20:25;;;;;;;77.80;37.35;;;4.80;99.90;;;;;;5112669;28;20031;-86
2020/12/19 09:22:51;;;;;;;77.65;37.08;;;4.80;99.90;;;;;;5112333;28;20027;-86
2020/12/19 09:25:17;;;;;;;80.55;39.78;;;4.80;99.90;;;;;;5103180;28;20104;-86
2020/12/19 09:27:42;;;;;;;74.40;34.95;;;4.90;99.90;;;;;;5086769;28;20114;-86
2020/12/19 09:30:08;;;;;;;85.78;38.88;;;4.90;99.90;;;;;;5092441;28;20027;-82
2020/12/19 09:32:33;;;;;;;76.60;35.47;;;5.00;99.90;;;;;;5091377;28;20023;-86
2020/12/19 09:34:59;;;;;;;74.38;35.47;;;5.00;99.90;;;;;;5093072;28;20046;-84
2020/12/19 09:37:25;;;;;;;77.43;36.22;;;5.10;99.90;;;;;;5093482;28;20035;-85
2020/12/19 09:39:50;;;;;;;72.55;35.38;;;5.10;99.90;;;;;;5094461;28;20047;-85
2020/12/19 09:42:16;;;;;;;78.20;36.45;;;5.10;99.90;;;;;;5093177;28;20042;-85
2020/12/19 09:44:41;;;;;;;81.82;35.72;;;5.20;99.90;;;;;;5106893;28;20027;-86
2020/12/19 09:47:07;;;;;;;72.97;35.70;;;5.20;99.90;;;;;;5094919;28;20115;-85
2020/12/19 09:49:32;;;;;;;76.57;37.38;;;5.30;99.90;;;;;;5094021;28;20019;-86
2020/12/19 09:51:58;;;;;;;68.70;34.80;;;5.40;99.90;;;;;;5092999;28;20081;-86
2020/12/19 09:54:24;;;;;;;57.95;30.08;;;6.00;99.90;;;;;;5088589;28;20024;-86
2020/12/19 09:56:49;;;;;;;54.83;29.33;;;6.50;99.90;;;;;;5094521;28;20023;-86
2020/12/19 09:59:18;;;;;;;46.13;25.45;;;6.90;99.90;;;;;;5087038;28;20039;-86
2020/12/19 10:01:43;;;;;;;45.35;24.08;;;7.50;99.90;;;;;;5087337;28;20031;-86
2020/12/19 10:04:09;;;;;;;41.95;23.35;;;7.90;99.90;;;;;;5091636;28;20026;-86
2020/12/19 10:06:35;;;;;;;39.00;22.17;;;8.30;99.90;;;;;;5075180;28;20039;-84
2020/12/19 10:09:00;;;;;;;43.08;21.02;;;8.90;99.90;;;;;;5119911;28;20024;-84
2020/12/19 10:11:27;;;;;;;36.75;20.85;;;8.90;99.90;;;;;;5109068;28;20475;-85
2020/12/19 10:13:52;;;;;;;38.75;21.25;;;8.90;99.90;;;;;;5126714;27;20022;-85
2020/12/19 10:16:18;;;;;;;36.25;20.65;;;9.00;99.90;;;;;;5090818;28;20118;-85
2020/12/19 10:18:44;;;;;;;38.92;20.85;;;8.90;99.90;;;;;;5115512;27;20485;-85
2020/12/19 10:21:11;;;;;;;38.80;20.90;;;9.00;99.90;;;;;;5093797;28;20032;-85
2020/12/19 10:23:36;;;;;;;35.92;20.60;;;9.00;99.90;;;;;;5093067;28;20047;-85
2020/12/19 10:26:02;;;;;;;33.47;20.45;;;8.70;99.90;;;;;;5090750;28;20031;-84
2020/12/19 10:28:27;;;;;;;36.20;21.58;;;8.90;99.90;;;;;;5089216;28;20084;-84
2020/12/19 10:30:53;;;;;;;41.15;21.58;;;8.90;99.90;;;;;;5087661;28;20556;-85
2020/12/19 10:33:19;;;;;;;37.15;20.73;;;8.80;99.90;;;;;;5089863;28;20066;-85
2020/12/19 10:35:46;;;;;;;36.38;20.90;;;9.20;99.90;;;;;;5091571;28;20024;-85
2020/12/19 10:38:12;;;;;;;34.35;19.95;;;9.00;99.90;;;;;;5086929;28;20044;-86
2020/12/19 10:40:38;;;;;;;36.20;21.10;;;9.00;99.90;;;;;;5089935;28;20070;-87
2020/12/19 10:43:03;;;;;;;39.05;20.00;;;9.20;99.90;;;;;;5086907;28;20054;-86
2020/12/19 10:45:29;;;;;;;37.42;20.98;;;9.40;99.90;;;;;;5086736;28;20107;-86
2020/12/19 10:47:54;;;;;;;35.10;21.25;;;9.20;99.90;;;;;;5077582;28;20086;-88
2020/12/19 10:50:20;;;;;;;35.20;19.65;;;9.30;99.90;;;;;;5092769;28;20432;-84
2020/12/19 10:52:47;;;;;;;39.25;21.80;;;9.30;99.90;;;;;;5090043;28;20031;-84
2020/12/19 10:55:12;;;;;;;35.53;20.27;;;9.80;99.90;;;;;;5081958;28;20032;-85
2020/12/19 10:57:38;;;;;;;34.63;20.65;;;9.70;99.90;;;;;;5091233;28;20024;-84
2020/12/19 11:00:05;;;;;;;36.70;20.05;;;9.40;99.90;;;;;;5090542;28;20043;-85
2020/12/19 11:02:31;;;;;;;33.83;18.48;;;9.10;99.90;;;;;;5090352;28;20077;-85
2020/12/19 11:04:56;;;;;;;36.78;20.98;;;9.30;99.90;;;;;;5089767;28;20450;-85
2020/12/19 11:07:22;;;;;;;37.03;21.30;;;9.30;99.90;;;;;;5099734;28;20064;-85
2020/12/19 11:09:48;;;;;;;38.38;21.73;;;8.90;99.90;;;;;;5097656;28;20032;-83
2020/12/19 11:12:13;;;;;;;36.05;20.15;;;8.30;99.90;;;;;;5092318;28;20425;-84
2020/12/19 11:14:39;;;;;;;44.15;21.83;;;8.10;99.90;;;;;;5085699;28;20027;-84
2020/12/19 11:17:04;;;;;;;39.25;21.15;;;8.20;99.90;;;;;;5090075;28;20020;-84
2020/12/19 11:19:30;;;;;;;46.97;23.08;;;8.70;99.90;;;;;;5092364;28;20556;-85
2020/12/19 11:21:55;;;;;;;41.30;22.35;;;9.00;99.90;;;;;;5108951;28;20031;-85
2020/12/19 11:24:22;;;;;;;40.13;20.75;;;9.50;99.90;;;;;;5092295;28;20024;-86
2020/12/19 11:26:48;;;;;;;36.88;21.23;;;9.60;99.90;;;;;;5089642;28;20115;-85
2020/12/19 11:29:14;;;;;;;36.92;20.67;;;9.70;99.90;;;;;;5090195;28;20131;-85
2020/12/19 11:31:40;;;;;;;38.63;20.42;;;9.50;99.90;;;;;;5087970;28;20031;-85
2020/12/19 11:34:06;;;;;;;37.42;21.70;;;9.70;99.90;;;;;;5091834;28;20027;-85
2020/12/19 11:36:38;;;;;;;36.38;19.90;;;10.10;99.90;;;;;;5083410;28;20485;-85
2020/12/19 11:39:08;;;;;;;34.03;19.48;;;10.30;99.90;;;;;;5087892;28;20081;-85
2020/12/19 11:41:34;;;;;;;31.05;18.25;;;10.20;99.90;;;;;;5087311;28;20074;-85
2020/12/19 11:44:00;;;;;;;29.75;18.17;;;10.30;99.90;;;;;;5082645;28;20024;-85
2020/12/19 11:46:25;;;;;;;33.35;19.77;;;10.30;99.90;;;;;;5082461;28;20085;-85
2020/12/19 11:48:51;;;;;;;36.17;18.90;;;10.20;99.90;;;;;;5090101;28;20082;-86
2020/12/19 11:51:17;;;;;;;37.38;20.10;;;10.30;99.90;;;;;;5101834;28;20036;-85
2020/12/19 11:53:42;;;;;;;33.78;19.08;;;10.20;99.90;;;;;;5080947;28;20020;-85
2020/12/19 11:56:08;;;;;;;33.15;18.40;;;10.10;99.90;;;;;;5083418;28;20042;-85
2020/12/19 11:58:34;;;;;;;33.83;18.55;;;10.20;99.90;;;;;;5089234;28;20073;-85
2020/12/19 12:01:00;;;;;;;34.10;18.88;;;10.40;99.90;;;;;;5087121;28;20115;-85
2020/12/19 12:03:25;;;;;;;37.22;17.85;;;10.30;99.90;;;;;;5086950;28;20024;-85
2020/12/19 12:05:51;;;;;;;30.50;18.42;;;10.10;99.90;;;;;;5091269;28;20030;-84
2020/12/19 12:08:17;;;;;;;33.90;19.25;;;9.70;99.90;;;;;;5110027;28;20478;-86
2020/12/19 12:10:43;;;;;;;33.38;19.77;;;9.80;99.90;;;;;;5078027;28;20076;-86
2020/12/19 12:13:09;;;;;;;34.15;18.80;;;9.90;99.90;;;;;;5077578;28;20388;-85
2020/12/19 12:15:35;;;;;;;37.20;19.90;;;9.80;99.90;;;;;;5080462;28;20028;-85
2020/12/19 12:18:00;;;;;;;34.83;19.70;;;9.70;99.90;;;;;;5078095;28;20388;-84
2020/12/19 12:20:26;;;;;;;36.38;20.77;;;9.50;99.90;;;;;;5084345;28;20020;-85
2020/12/19 12:22:51;;;;;;;44.65;21.77;;;9.20;99.90;;;;;;5086121;28;20368;-85
2020/12/19 12:25:17;;;;;;;38.58;21.70;;;9.20;99.90;;;;;;5092831;28;20078;-84
2020/12/19 12:27:43;;;;;;;44.42;22.33;;;9.20;99.90;;;;;;5109267;28;21568;-83
2020/12/19 12:30:09;;;;;;;37.95;21.67;;;9.20;99.90;;;;;;5090106;28;20036;-86
2020/12/19 12:32:34;;;;;;;33.92;20.48;;;9.20;99.90;;;;;;5108819;28;20538;-85
2020/12/19 12:35:00;;;;;;;42.67;21.42;;;9.30;99.90;;;;;;5107871;28;20020;-85
2020/12/19 12:37:25;;;;;;;38.47;21.63;;;9.30;99.90;;;;;;5082492;28;20023;-85